sensor_id;sensor_type;location;lat;lon;timestamp;P1;durP1;ratioP1;P2;durP2;ratioP2
39300;SDS011;25019;42.626;23.380;2023-04-01T00:00:17;9.20;;;5.37;;
39300;SDS011;25019;42.626;23.380;2023-04-01T00:02:44;9.20;;;6.13;;
39300;SDS011;25019;42.626;23.380;2023-04-01T00:05:10;10.53;;;6.13;;
39300;SDS011;25019;42.626;23.380;2023-04-01T00:07:36;11.77;;;7.37;;
39300;SDS011;25019;42.626;23.380;2023-04-01T00:10:06;11.07;;;6.23;;
39300;SDS011;25019;42.626;23.380;2023-04-01T00:12:34;9.97;;;6.63;;
39300;SDS011;25019;42.626;23.380;2023-04-01T00:15:00;10.93;;;6.53;;
39300;SDS011;25019;42.626;23.380;2023-04-01T00:17:26;11.23;;;6.47;;
39300;SDS011;25019;42.626;23.380;2023-04-01T00:19:54;10.07;;;6.40;;
39300;SDS011;25019;42.626;23.380;2023-04-01T00:22:20;11.47;;;6.30;;
39300;SDS011;25019;42.626;23.380;2023-04-01T00:24:47;10.40;;;6.40;;
39300;SDS011;25019;42.626;23.380;2023-04-01T00:27:13;12.17;;;6.47;;
39300;SDS011;25019;42.626;23.380;2023-04-01T00:29:42;11.20;;;5.60;;
39300;SDS011;25019;42.626;23.380;2023-04-01T00:32:09;9.03;;;5.73;;
39300;SDS011;25019;42.626;23.380;2023-04-01T00:34:34;8.83;;;5.57;;
39300;SDS011;25019;42.626;23.380;2023-04-01T00:37:00;8.83;;;5.33;;
39300;SDS011;25019;42.626;23.380;2023-04-01T00:39:28;12.50;;;5.40;;
39300;SDS011;25019;42.626;23.380;2023-04-01T00:41:54;11.63;;;5.90;;
39300;SDS011;25019;42.626;23.380;2023-04-01T00:44:28;14.47;;;5.10;;
39300;SDS011;25019;42.626;23.380;2023-04-01T00:46:56;9.13;;;5.67;;
39300;SDS011;25019;42.626;23.380;2023-04-01T00:49:23;12.70;;;5.67;;
39300;SDS011;25019;42.626;23.380;2023-04-01T00:51:53;8.07;;;5.47;;
39300;SDS011;25019;42.626;23.380;2023-04-01T00:54:21;11.17;;;4.77;;
39300;SDS011;25019;42.626;23.380;2023-04-01T00:56:50;8.30;;;5.50;;
39300;SDS011;25019;42.626;23.380;2023-04-01T00:59:31;9.50;;;4.97;;
39300;SDS011;25019;42.626;23.380;2023-04-01T01:02:00;9.07;;;5.10;;
39300;SDS011;25019;42.626;23.380;2023-04-01T01:04:28;8.40;;;5.10;;
39300;SDS011;25019;42.626;23.380;2023-04-01T01:15:30;8.37;;;4.50;;
39300;SDS011;25019;42.626;23.380;2023-04-01T01:32:27;6.70;;;3.47;;
39300;SDS011;25019;42.626;23.380;2023-04-01T01:37:41;6.10;;;3.17;;
39300;SDS011;25019;42.626;23.380;2023-04-01T01:40:11;5.40;;;3.00;;
39300;SDS011;25019;42.626;23.380;2023-04-01T01:42:40;6.23;;;3.60;;
39300;SDS011;25019;42.626;23.380;2023-04-01T01:45:11;8.83;;;3.27;;
39300;SDS011;25019;42.626;23.380;2023-04-01T01:47:39;7.53;;;3.10;;
39300;SDS011;25019;42.626;23.380;2023-04-01T01:50:07;4.57;;;2.60;;
39300;SDS011;25019;42.626;23.380;2023-04-01T01:52:34;4.83;;;3.10;;
39300;SDS011;25019;42.626;23.380;2023-04-01T01:55:00;6.47;;;3.40;;
39300;SDS011;25019;42.626;23.380;2023-04-01T01:57:36;7.80;;;3.20;;
39300;SDS011;25019;42.626;23.380;2023-04-01T02:00:09;5.57;;;2.80;;
39300;SDS011;25019;42.626;23.380;2023-04-01T02:02:42;6.93;;;2.83;;
39300;SDS011;25019;42.626;23.380;2023-04-01T02:05:14;6.13;;;2.97;;
39300;SDS011;25019;42.626;23.380;2023-04-01T02:07:42;8.57;;;3.10;;
39300;SDS011;25019;42.626;23.380;2023-04-01T02:10:13;5.70;;;2.80;;
39300;SDS011;25019;42.626;23.380;2023-04-01T02:12:39;9.40;;;3.23;;
39300;SDS011;25019;42.626;23.380;2023-04-01T02:15:10;10.73;;;2.83;;
39300;SDS011;25019;42.626;23.380;2023-04-01T02:17:42;6.37;;;3.13;;
39300;SDS011;25019;42.626;23.380;2023-04-01T02:20:17;5.30;;;2.87;;
39300;SDS011;25019;42.626;23.380;2023-04-01T02:22:48;5.60;;;2.73;;
39300;SDS011;25019;42.626;23.380;2023-04-01T02:25:27;5.37;;;2.77;;
39300;SDS011;25019;42.626;23.380;2023-04-01T02:27:56;5.17;;;2.97;;
39300;SDS011;25019;42.626;23.380;2023-04-01T02:30:25;5.50;;;3.47;;
39300;SDS011;25019;42.626;23.380;2023-04-01T02:32:53;5.83;;;2.83;;
39300;SDS011;25019;42.626;23.380;2023-04-01T02:35:22;6.30;;;2.80;;
39300;SDS011;25019;42.626;23.380;2023-04-01T02:37:48;7.13;;;3.00;;
39300;SDS011;25019;42.626;23.380;2023-04-01T02:40:15;6.33;;;2.80;;
39300;SDS011;25019;42.626;23.380;2023-04-01T02:42:42;7.87;;;2.70;;
39300;SDS011;25019;42.626;23.380;2023-04-01T02:45:09;6.13;;;3.03;;
39300;SDS011;25019;42.626;23.380;2023-04-01T02:47:35;6.90;;;2.73;;
39300;SDS011;25019;42.626;23.380;2023-04-01T02:50:00;6.87;;;2.90;;
39300;SDS011;25019;42.626;23.380;2023-04-01T02:52:27;7.60;;;3.13;;
39300;SDS011;25019;42.626;23.380;2023-04-01T02:54:55;6.33;;;3.07;;
39300;SDS011;25019;42.626;23.380;2023-04-01T02:57:22;6.17;;;3.30;;
39300;SDS011;25019;42.626;23.380;2023-04-01T02:59:48;5.80;;;2.60;;
39300;SDS011;25019;42.626;23.380;2023-04-01T03:02:14;9.27;;;2.90;;
39300;SDS011;25019;42.626;23.380;2023-04-01T03:04:41;6.27;;;2.63;;
39300;SDS011;25019;42.626;23.380;2023-04-01T03:07:07;8.90;;;3.00;;
39300;SDS011;25019;42.626;23.380;2023-04-01T03:09:38;5.50;;;2.70;;
39300;SDS011;25019;42.626;23.380;2023-04-01T03:12:05;8.50;;;3.07;;
39300;SDS011;25019;42.626;23.380;2023-04-01T03:14:38;3.73;;;2.50;;
39300;SDS011;25019;42.626;23.380;2023-04-01T03:17:04;5.83;;;2.87;;
39300;SDS011;25019;42.626;23.380;2023-04-01T03:19:31;6.10;;;3.00;;
39300;SDS011;25019;42.626;23.380;2023-04-01T03:21:58;4.93;;;2.77;;
39300;SDS011;25019;42.626;23.380;2023-04-01T03:24:24;6.80;;;3.47;;
39300;SDS011;25019;42.626;23.380;2023-04-01T03:26:50;7.30;;;3.30;;
39300;SDS011;25019;42.626;23.380;2023-04-01T03:29:17;8.53;;;2.17;;
39300;SDS011;25019;42.626;23.380;2023-04-01T03:31:43;3.83;;;1.20;;
39300;SDS011;25019;42.626;23.380;2023-04-01T03:34:09;2.20;;;1.10;;
39300;SDS011;25019;42.626;23.380;2023-04-01T03:36:35;3.20;;;1.17;;
39300;SDS011;25019;42.626;23.380;2023-04-01T03:39:01;5.13;;;1.80;;
39300;SDS011;25019;42.626;23.380;2023-04-01T03:41:36;8.40;;;2.50;;
39300;SDS011;25019;42.626;23.380;2023-04-01T03:44:04;6.07;;;2.30;;
39300;SDS011;25019;42.626;23.380;2023-04-01T03:46:29;6.20;;;3.13;;
39300;SDS011;25019;42.626;23.380;2023-04-01T03:48:55;8.20;;;4.17;;
39300;SDS011;25019;42.626;23.380;2023-04-01T03:51:21;7.13;;;4.70;;
39300;SDS011;25019;42.626;23.380;2023-04-01T03:53:47;8.90;;;4.37;;
39300;SDS011;25019;42.626;23.380;2023-04-01T03:56:14;7.83;;;4.87;;
39300;SDS011;25019;42.626;23.380;2023-04-01T03:58:39;7.73;;;5.07;;
39300;SDS011;25019;42.626;23.380;2023-04-01T04:01:17;8.43;;;4.43;;
39300;SDS011;25019;42.626;23.380;2023-04-01T04:03:46;8.33;;;4.63;;
39300;SDS011;25019;42.626;23.380;2023-04-01T04:06:14;9.47;;;4.70;;
39300;SDS011;25019;42.626;23.380;2023-04-01T04:08:40;8.63;;;5.07;;
39300;SDS011;25019;42.626;23.380;2023-04-01T04:11:06;10.20;;;4.43;;
39300;SDS011;25019;42.626;23.380;2023-04-01T04:13:32;10.23;;;5.23;;
39300;SDS011;25019;42.626;23.380;2023-04-01T04:16:00;7.97;;;3.97;;
39300;SDS011;25019;42.626;23.380;2023-04-01T04:18:26;10.20;;;4.30;;
39300;SDS011;25019;42.626;23.380;2023-04-01T04:20:52;9.80;;;4.37;;
39300;SDS011;25019;42.626;23.380;2023-04-01T04:23:18;9.63;;;4.80;;
39300;SDS011;25019;42.626;23.380;2023-04-01T04:25:58;7.00;;;4.40;;
39300;SDS011;25019;42.626;23.380;2023-04-01T04:28:27;9.63;;;3.67;;
39300;SDS011;25019;42.626;23.380;2023-04-01T04:30:55;10.80;;;3.90;;
39300;SDS011;25019;42.626;23.380;2023-04-01T04:33:21;8.70;;;4.10;;
39300;SDS011;25019;42.626;23.380;2023-04-01T04:35:48;7.63;;;3.03;;
39300;SDS011;25019;42.626;23.380;2023-04-01T04:38:14;6.37;;;3.10;;
39300;SDS011;25019;42.626;23.380;2023-04-01T04:40:41;5.10;;;3.00;;
39300;SDS011;25019;42.626;23.380;2023-04-01T04:43:09;5.27;;;2.30;;
39300;SDS011;25019;42.626;23.380;2023-04-01T04:45:36;5.27;;;2.37;;
39300;SDS011;25019;42.626;23.380;2023-04-01T04:48:02;4.23;;;2.47;;
39300;SDS011;25019;42.626;23.380;2023-04-01T04:50:28;7.30;;;2.87;;
39300;SDS011;25019;42.626;23.380;2023-04-01T04:52:54;8.63;;;2.80;;
39300;SDS011;25019;42.626;23.380;2023-04-01T04:55:20;6.27;;;2.67;;
39300;SDS011;25019;42.626;23.380;2023-04-01T04:57:51;4.77;;;2.30;;
39300;SDS011;25019;42.626;23.380;2023-04-01T05:00:17;3.07;;;2.00;;
39300;SDS011;25019;42.626;23.380;2023-04-01T05:02:56;3.77;;;1.83;;
39300;SDS011;25019;42.626;23.380;2023-04-01T05:05:21;8.60;;;3.20;;
39300;SDS011;25019;42.626;23.380;2023-04-01T05:07:48;5.17;;;2.50;;
39300;SDS011;25019;42.626;23.380;2023-04-01T05:10:14;6.10;;;2.40;;
39300;SDS011;25019;42.626;23.380;2023-04-01T05:12:40;4.63;;;1.90;;
39300;SDS011;25019;42.626;23.380;2023-04-01T05:15:08;10.77;;;3.10;;
39300;SDS011;25019;42.626;23.380;2023-04-01T05:17:33;3.83;;;2.93;;
39300;SDS011;25019;42.626;23.380;2023-04-01T05:20:01;10.60;;;3.90;;
39300;SDS011;25019;42.626;23.380;2023-04-01T05:22:28;8.93;;;3.70;;
39300;SDS011;25019;42.626;23.380;2023-04-01T05:24:53;7.60;;;3.20;;
39300;SDS011;25019;42.626;23.380;2023-04-01T05:27:19;6.77;;;3.33;;
39300;SDS011;25019;42.626;23.380;2023-04-01T05:29:45;9.53;;;4.33;;
39300;SDS011;25019;42.626;23.380;2023-04-01T05:32:31;10.23;;;4.03;;
39300;SDS011;25019;42.626;23.380;2023-04-01T05:34:57;10.13;;;4.23;;
39300;SDS011;25019;42.626;23.380;2023-04-01T05:37:22;8.80;;;4.60;;
39300;SDS011;25019;42.626;23.380;2023-04-01T05:39:48;7.60;;;4.00;;
39300;SDS011;25019;42.626;23.380;2023-04-01T05:42:14;10.97;;;6.10;;
39300;SDS011;25019;42.626;23.380;2023-04-01T05:44:41;8.40;;;4.73;;
39300;SDS011;25019;42.626;23.380;2023-04-01T05:47:06;6.90;;;4.30;;
39300;SDS011;25019;42.626;23.380;2023-04-01T05:49:33;7.97;;;4.33;;
39300;SDS011;25019;42.626;23.380;2023-04-01T05:51:59;10.00;;;4.97;;
39300;SDS011;25019;42.626;23.380;2023-04-01T05:54:26;10.73;;;5.43;;
39300;SDS011;25019;42.626;23.380;2023-04-01T05:56:52;8.57;;;4.17;;
39300;SDS011;25019;42.626;23.380;2023-04-01T05:59:18;14.03;;;4.97;;
39300;SDS011;25019;42.626;23.380;2023-04-01T06:01:44;7.50;;;4.03;;
39300;SDS011;25019;42.626;23.380;2023-04-01T06:04:13;7.57;;;4.13;;
39300;SDS011;25019;42.626;23.380;2023-04-01T06:06:40;9.27;;;4.13;;
39300;SDS011;25019;42.626;23.380;2023-04-01T06:09:13;7.07;;;4.40;;
39300;SDS011;25019;42.626;23.380;2023-04-01T06:14:48;8.30;;;4.43;;
39300;SDS011;25019;42.626;23.380;2023-04-01T06:20:10;9.97;;;4.40;;
39300;SDS011;25019;42.626;23.380;2023-04-01T06:25:53;9.10;;;4.33;;
39300;SDS011;25019;42.626;23.380;2023-04-01T06:28:46;8.70;;;3.80;;
39300;SDS011;25019;42.626;23.380;2023-04-01T06:54:11;11.63;;;4.30;;
39300;SDS011;25019;42.626;23.380;2023-04-01T06:57:03;8.43;;;4.13;;
39300;SDS011;25019;42.626;23.380;2023-04-01T06:59:42;8.10;;;4.07;;
39300;SDS011;25019;42.626;23.380;2023-04-01T07:04:58;9.37;;;3.90;;
39300;SDS011;25019;42.626;23.380;2023-04-01T07:07:37;10.57;;;4.17;;
39300;SDS011;25019;42.626;23.380;2023-04-01T07:10:11;10.50;;;4.40;;
39300;SDS011;25019;42.626;23.380;2023-04-01T07:13:02;12.80;;;5.27;;
39300;SDS011;25019;42.626;23.380;2023-04-01T07:15:58;14.63;;;5.67;;
39300;SDS011;25019;42.626;23.380;2023-04-01T07:18:41;11.47;;;6.40;;
39300;SDS011;25019;42.626;23.380;2023-04-01T07:21:15;8.10;;;4.50;;
39300;SDS011;25019;42.626;23.380;2023-04-01T07:23:54;8.53;;;4.53;;
39300;SDS011;25019;42.626;23.380;2023-04-01T07:26:38;10.23;;;5.10;;
39300;SDS011;25019;42.626;23.380;2023-04-01T07:29:11;12.20;;;5.20;;
39300;SDS011;25019;42.626;23.380;2023-04-01T07:31:45;9.37;;;5.03;;
39300;SDS011;25019;42.626;23.380;2023-04-01T07:36:57;13.13;;;5.53;;
39300;SDS011;25019;42.626;23.380;2023-04-01T07:39:53;7.10;;;5.20;;
39300;SDS011;25019;42.626;23.380;2023-04-01T07:45:22;10.57;;;4.73;;
39300;SDS011;25019;42.626;23.380;2023-04-01T07:48:06;12.13;;;5.97;;
39300;SDS011;25019;42.626;23.380;2023-04-01T07:51:02;9.60;;;4.93;;
39300;SDS011;25019;42.626;23.380;2023-04-01T08:02:07;7.33;;;4.53;;
39300;SDS011;25019;42.626;23.380;2023-04-01T08:05:04;10.47;;;5.30;;
39300;SDS011;25019;42.626;23.380;2023-04-01T08:07:45;8.57;;;4.57;;
39300;SDS011;25019;42.626;23.380;2023-04-01T08:13:54;10.23;;;5.10;;
39300;SDS011;25019;42.626;23.380;2023-04-01T08:22:43;7.83;;;4.33;;
39300;SDS011;25019;42.626;23.380;2023-04-01T08:25:32;11.23;;;5.37;;
39300;SDS011;25019;42.626;23.380;2023-04-01T08:28:00;9.57;;;5.30;;
39300;SDS011;25019;42.626;23.380;2023-04-01T08:30:38;9.47;;;4.37;;
39300;SDS011;25019;42.626;23.380;2023-04-01T08:33:24;12.07;;;6.40;;
39300;SDS011;25019;42.626;23.380;2023-04-01T08:36:02;8.90;;;4.47;;
39300;SDS011;25019;42.626;23.380;2023-04-01T08:38:48;10.97;;;4.07;;
39300;SDS011;25019;42.626;23.380;2023-04-01T08:44:40;12.27;;;3.90;;
39300;SDS011;25019;42.626;23.380;2023-04-01T08:56:41;5.93;;;4.00;;
39300;SDS011;25019;42.626;23.380;2023-04-01T09:05:30;11.17;;;5.37;;
39300;SDS011;25019;42.626;23.380;2023-04-01T09:08:24;5.40;;;3.80;;
39300;SDS011;25019;42.626;23.380;2023-04-01T09:11:05;6.80;;;3.47;;
39300;SDS011;25019;42.626;23.380;2023-04-01T09:14:25;4.97;;;2.93;;
39300;SDS011;25019;42.626;23.380;2023-04-01T09:17:25;6.97;;;4.00;;
39300;SDS011;25019;42.626;23.380;2023-04-01T09:39:57;8.03;;;3.93;;
39300;SDS011;25019;42.626;23.380;2023-04-01T09:45:33;7.10;;;3.70;;
39300;SDS011;25019;42.626;23.380;2023-04-01T10:16:26;7.73;;;3.50;;
39300;SDS011;25019;42.626;23.380;2023-04-01T10:22:21;6.77;;;3.00;;
39300;SDS011;25019;42.626;23.380;2023-04-01T10:28:16;6.53;;;3.37;;
39300;SDS011;25019;42.626;23.380;2023-04-01T10:36:44;5.80;;;3.37;;
39300;SDS011;25019;42.626;23.380;2023-04-01T10:53:32;6.47;;;2.87;;
39300;SDS011;25019;42.626;23.380;2023-04-01T10:59:57;7.07;;;3.00;;
39300;SDS011;25019;42.626;23.380;2023-04-01T11:22:42;8.57;;;3.20;;
39300;SDS011;25019;42.626;23.380;2023-04-01T11:29:40;8.27;;;2.40;;
39300;SDS011;25019;42.626;23.380;2023-04-01T11:38:19;4.00;;;2.30;;
39300;SDS011;25019;42.626;23.380;2023-04-01T11:44:25;5.67;;;2.10;;
39300;SDS011;25019;42.626;23.380;2023-04-01T11:50:03;7.57;;;2.53;;
39300;SDS011;25019;42.626;23.380;2023-04-01T12:19:41;8.27;;;2.97;;
39300;SDS011;25019;42.626;23.380;2023-04-01T12:30:35;5.80;;;3.47;;
39300;SDS011;25019;42.626;23.380;2023-04-01T12:33:29;6.83;;;2.70;;
39300;SDS011;25019;42.626;23.380;2023-04-01T12:36:19;7.07;;;2.67;;
39300;SDS011;25019;42.626;23.380;2023-04-01T12:58:38;7.90;;;3.73;;
39300;SDS011;25019;42.626;23.380;2023-04-01T13:01:26;7.13;;;3.60;;
39300;SDS011;25019;42.626;23.380;2023-04-01T13:23:32;6.87;;;3.77;;
39300;SDS011;25019;42.626;23.380;2023-04-01T13:28:26;7.53;;;3.77;;
39300;SDS011;25019;42.626;23.380;2023-04-01T13:31:01;6.60;;;3.20;;
39300;SDS011;25019;42.626;23.380;2023-04-01T13:36:35;6.63;;;3.07;;
39300;SDS011;25019;42.626;23.380;2023-04-01T13:53:04;1.87;;;1.00;;
39300;SDS011;25019;42.626;23.380;2023-04-01T13:55:57;4.23;;;1.13;;
39300;SDS011;25019;42.626;23.380;2023-04-01T14:04:22;2.47;;;1.43;;
39300;SDS011;25019;42.626;23.380;2023-04-01T14:12:58;5.47;;;2.63;;
39300;SDS011;25019;42.626;23.380;2023-04-01T14:20:34;5.73;;;3.33;;
39300;SDS011;25019;42.626;23.380;2023-04-01T14:43:01;3.50;;;2.57;;
39300;SDS011;25019;42.626;23.380;2023-04-01T14:48:52;5.80;;;2.60;;
39300;SDS011;25019;42.626;23.380;2023-04-01T14:51:31;4.53;;;2.53;;
39300;SDS011;25019;42.626;23.380;2023-04-01T14:56:42;5.43;;;2.90;;
39300;SDS011;25019;42.626;23.380;2023-04-01T15:01:54;4.07;;;2.80;;
39300;SDS011;25019;42.626;23.380;2023-04-01T15:10:02;8.70;;;4.17;;
39300;SDS011;25019;42.626;23.380;2023-04-01T15:12:43;6.00;;;2.83;;
39300;SDS011;25019;42.626;23.380;2023-04-01T15:15:29;4.87;;;2.80;;
39300;SDS011;25019;42.626;23.380;2023-04-01T15:18:09;4.70;;;2.47;;
39300;SDS011;25019;42.626;23.380;2023-04-01T15:31:29;6.33;;;2.90;;
39300;SDS011;25019;42.626;23.380;2023-04-01T15:42:31;5.03;;;2.60;;
39300;SDS011;25019;42.626;23.380;2023-04-01T15:45:56;5.37;;;2.70;;
39300;SDS011;25019;42.626;23.380;2023-04-01T15:49:03;6.53;;;2.80;;
39300;SDS011;25019;42.626;23.380;2023-04-01T15:51:41;5.13;;;2.73;;
39300;SDS011;25019;42.626;23.380;2023-04-01T15:54:32;6.43;;;3.17;;
39300;SDS011;25019;42.626;23.380;2023-04-01T16:20:57;1.80;;;1.40;;
39300;SDS011;25019;42.626;23.380;2023-04-01T16:23:37;1.23;;;1.13;;
39300;SDS011;25019;42.626;23.380;2023-04-01T16:26:13;3.43;;;1.93;;
39300;SDS011;25019;42.626;23.380;2023-04-01T16:28:57;3.03;;;1.60;;
39300;SDS011;25019;42.626;23.380;2023-04-01T16:34:16;2.50;;;2.00;;
39300;SDS011;25019;42.626;23.380;2023-04-01T16:39:50;3.30;;;1.67;;
39300;SDS011;25019;42.626;23.380;2023-04-01T16:45:24;2.00;;;1.30;;
39300;SDS011;25019;42.626;23.380;2023-04-01T16:50:48;1.77;;;1.50;;
39300;SDS011;25019;42.626;23.380;2023-04-01T16:53:24;2.57;;;1.67;;
39300;SDS011;25019;42.626;23.380;2023-04-01T16:55:55;1.43;;;1.33;;
39300;SDS011;25019;42.626;23.380;2023-04-01T16:58:37;2.20;;;1.60;;
39300;SDS011;25019;42.626;23.380;2023-04-01T17:01:08;1.57;;;1.33;;
39300;SDS011;25019;42.626;23.380;2023-04-01T17:03:52;2.67;;;1.57;;
39300;SDS011;25019;42.626;23.380;2023-04-01T17:18:02;0.97;;;0.87;;
39300;SDS011;25019;42.626;23.380;2023-04-01T17:20:35;1.20;;;0.90;;
39300;SDS011;25019;42.626;23.380;2023-04-01T17:26:55;1.73;;;1.30;;
39300;SDS011;25019;42.626;23.380;2023-04-01T17:31:42;1.17;;;1.07;;
39300;SDS011;25019;42.626;23.380;2023-04-01T17:45:53;1.93;;;1.30;;
39300;SDS011;25019;42.626;23.380;2023-04-01T17:51:14;1.47;;;1.10;;
39300;SDS011;25019;42.626;23.380;2023-04-01T17:59:25;1.27;;;1.17;;
39300;SDS011;25019;42.626;23.380;2023-04-01T18:02:09;1.83;;;1.50;;
39300;SDS011;25019;42.626;23.380;2023-04-01T18:16:24;2.20;;;1.60;;
39300;SDS011;25019;42.626;23.380;2023-04-01T18:22:21;1.70;;;1.60;;
39300;SDS011;25019;42.626;23.380;2023-04-01T18:27:43;3.63;;;2.73;;
39300;SDS011;25019;42.626;23.380;2023-04-01T18:30:17;3.37;;;2.33;;
39300;SDS011;25019;42.626;23.380;2023-04-01T18:32:53;4.43;;;3.10;;
39300;SDS011;25019;42.626;23.380;2023-04-01T18:38:44;4.83;;;3.10;;
39300;SDS011;25019;42.626;23.380;2023-04-01T18:41:28;4.13;;;3.10;;
39300;SDS011;25019;42.626;23.380;2023-04-01T18:49:48;9.00;;;3.50;;
39300;SDS011;25019;42.626;23.380;2023-04-01T18:52:20;3.47;;;2.67;;
39300;SDS011;25019;42.626;23.380;2023-04-01T19:04:23;2.80;;;2.50;;
39300;SDS011;25019;42.626;23.380;2023-04-01T19:06:57;3.00;;;2.70;;
39300;SDS011;25019;42.626;23.380;2023-04-01T19:09:33;3.93;;;3.60;;
39300;SDS011;25019;42.626;23.380;2023-04-01T19:18:43;6.13;;;4.53;;
39300;SDS011;25019;42.626;23.380;2023-04-01T19:26:30;4.90;;;3.90;;
39300;SDS011;25019;42.626;23.380;2023-04-01T19:34:57;4.30;;;3.90;;
39300;SDS011;25019;42.626;23.380;2023-04-01T19:40:34;3.77;;;3.37;;
39300;SDS011;25019;42.626;23.380;2023-04-01T19:43:25;2.90;;;2.70;;
39300;SDS011;25019;42.626;23.380;2023-04-01T19:46:48;5.70;;;4.60;;
39300;SDS011;25019;42.626;23.380;2023-04-01T19:49:10;6.17;;;4.07;;
39300;SDS011;25019;42.626;23.380;2023-04-01T19:51:40;5.17;;;3.90;;
39300;SDS011;25019;42.626;23.380;2023-04-01T20:00:02;1.73;;;1.40;;
39300;SDS011;25019;42.626;23.380;2023-04-01T20:05:30;1.57;;;1.47;;
39300;SDS011;25019;42.626;23.380;2023-04-01T20:08:08;1.50;;;1.40;;
39300;SDS011;25019;42.626;23.380;2023-04-01T20:10:57;1.43;;;1.33;;
39300;SDS011;25019;42.626;23.380;2023-04-01T20:13:38;2.33;;;1.60;;
39300;SDS011;25019;42.626;23.380;2023-04-01T20:16:33;1.90;;;1.63;;
39300;SDS011;25019;42.626;23.380;2023-04-01T20:19:12;1.70;;;1.50;;
39300;SDS011;25019;42.626;23.380;2023-04-01T20:21:47;1.60;;;1.40;;
39300;SDS011;25019;42.626;23.380;2023-04-01T20:24:23;1.27;;;1.17;;
39300;SDS011;25019;42.626;23.380;2023-04-01T20:35:44;1.07;;;1.00;;
39300;SDS011;25019;42.626;23.380;2023-04-01T20:46:43;1.07;;;1.00;;
39300;SDS011;25019;42.626;23.380;2023-04-01T20:55:02;1.77;;;1.17;;
39300;SDS011;25019;42.626;23.380;2023-04-01T21:13:33;0.93;;;0.80;;
39300;SDS011;25019;42.626;23.380;2023-04-01T22:06:51;0.70;;;0.70;;
39300;SDS011;25019;42.626;23.380;2023-04-01T22:09:26;1.20;;;0.90;;
39300;SDS011;25019;42.626;23.380;2023-04-01T22:12:03;0.93;;;0.83;;
39300;SDS011;25019;42.626;23.380;2023-04-01T22:25:36;1.77;;;0.77;;
39300;SDS011;25019;42.626;23.380;2023-04-01T22:28:06;1.40;;;1.10;;
39300;SDS011;25019;42.626;23.380;2023-04-01T22:30:41;3.73;;;2.47;;
39300;SDS011;25019;42.626;23.380;2023-04-01T22:35:55;1.10;;;1.00;;
39300;SDS011;25019;42.626;23.380;2023-04-01T22:43:42;1.13;;;1.03;;
39300;SDS011;25019;42.626;23.380;2023-04-01T22:48:37;2.07;;;0.83;;
39300;SDS011;25019;42.626;23.380;2023-04-01T22:52:11;1.00;;;0.60;;
39300;SDS011;25019;42.626;23.380;2023-04-01T22:56:51;1.30;;;0.77;;
39300;SDS011;25019;42.626;23.380;2023-04-01T23:04:47;2.37;;;0.50;;
39300;SDS011;25019;42.626;23.380;2023-04-01T23:10:26;0.40;;;0.40;;
39300;SDS011;25019;42.626;23.380;2023-04-01T23:12:59;0.83;;;0.43;;
39300;SDS011;25019;42.626;23.380;2023-04-01T23:15:27;0.90;;;0.40;;
39300;SDS011;25019;42.626;23.380;2023-04-01T23:28:29;1.23;;;0.40;;
39300;SDS011;25019;42.626;23.380;2023-04-01T23:31:20;1.73;;;0.50;;
39300;SDS011;25019;42.626;23.380;2023-04-01T23:36:39;1.33;;;0.50;;
39300;SDS011;25019;42.626;23.380;2023-04-01T23:39:50;1.60;;;0.50;;
39300;SDS011;25019;42.626;23.380;2023-04-01T23:42:05;1.80;;;0.40;;
39300;SDS011;25019;42.626;23.380;2023-04-01T23:44:38;0.40;;;0.30;;
39300;SDS011;25019;42.626;23.380;2023-04-01T23:47:04;0.40;;;0.40;;
39300;SDS011;25019;42.626;23.380;2023-04-01T23:49:38;0.30;;;0.30;;
39300;SDS011;25019;42.626;23.380;2023-04-01T23:57:32;0.70;;;0.30;;
